Phoenix, Arizona
Traffic Map
Current Weather Conditions
Phoenix, Arizona
Few Clouds
Few Clouds
97°
Feels Like: 97°
Wind Chill: 97° Ceiling: Unl
Heat Index: 97° Visibility: 10mi
Dew Point: 49° Wind: 3mph
Humidity: 19% Direction: ° ()
Pressure: 29.81in Gusts: 0mph
Raw Report DataKPHX 281751Z VRB03KT 10SM FEW100 36/09 A2981 RMK AO2 SLP072 FU FEW100 T03610094 10372 20289 58004
Traffic Incident Summary
Active as of:
Severity:
Category:
InformationThere was an issue retrieving the traffic information for this location. Please try a different location or try again shortly.
Advertisements
Track Severe Weather on mobile